sensor_id;sensor_type;location;lat;lon;timestamp;P1;durP1;ratioP1;P2;durP2;ratioP2
69854;SDS011;57146;48.140;16.304;2023-04-29T00:01:10;10.57;;;4.80;;
69854;SDS011;57146;48.140;16.304;2023-04-29T00:03:37;10.52;;;4.55;;
69854;SDS011;57146;48.140;16.304;2023-04-29T00:06:04;8.88;;;4.18;;
69854;SDS011;57146;48.140;16.304;2023-04-29T00:08:32;10.93;;;4.88;;
69854;SDS011;57146;48.140;16.304;2023-04-29T00:11:00;9.88;;;4.63;;
69854;SDS011;57146;48.140;16.304;2023-04-29T00:13:27;10.53;;;4.63;;
69854;SDS011;57146;48.140;16.304;2023-04-29T00:15:54;9.35;;;4.57;;
69854;SDS011;57146;48.140;16.304;2023-04-29T00:18:21;9.70;;;4.72;;
69854;SDS011;57146;48.140;16.304;2023-04-29T00:20:48;9.57;;;4.75;;
69854;SDS011;57146;48.140;16.304;2023-04-29T00:23:15;10.05;;;4.80;;
69854;SDS011;57146;48.140;16.304;2023-04-29T00:25:42;9.87;;;4.80;;
69854;SDS011;57146;48.140;16.304;2023-04-29T00:28:08;9.77;;;4.20;;
69854;SDS011;57146;48.140;16.304;2023-04-29T00:30:35;10.10;;;4.97;;
69854;SDS011;57146;48.140;16.304;2023-04-29T00:33:02;10.90;;;4.53;;
69854;SDS011;57146;48.140;16.304;2023-04-29T00:35:33;11.65;;;4.45;;
69854;SDS011;57146;48.140;16.304;2023-04-29T00:38:01;10.93;;;4.43;;
69854;SDS011;57146;48.140;16.304;2023-04-29T00:40:28;10.30;;;4.72;;
69854;SDS011;57146;48.140;16.304;2023-04-29T00:42:54;10.85;;;4.90;;
69854;SDS011;57146;48.140;16.304;2023-04-29T00:45:22;11.75;;;5.13;;
69854;SDS011;57146;48.140;16.304;2023-04-29T00:47:49;7.97;;;4.05;;
69854;SDS011;57146;48.140;16.304;2023-04-29T00:50:16;10.70;;;5.03;;
69854;SDS011;57146;48.140;16.304;2023-04-29T00:52:44;11.27;;;4.97;;
69854;SDS011;57146;48.140;16.304;2023-04-29T00:55:11;10.32;;;5.20;;
69854;SDS011;57146;48.140;16.304;2023-04-29T00:57:38;12.45;;;5.47;;
69854;SDS011;57146;48.140;16.304;2023-04-29T01:00:05;12.57;;;6.63;;
69854;SDS011;57146;48.140;16.304;2023-04-29T01:02:33;12.37;;;5.33;;
69854;SDS011;57146;48.140;16.304;2023-04-29T01:05:00;13.35;;;5.97;;
69854;SDS011;57146;48.140;16.304;2023-04-29T01:10:02;14.82;;;6.78;;
69854;SDS011;57146;48.140;16.304;2023-04-29T01:17:41;16.45;;;7.65;;
69854;SDS011;57146;48.140;16.304;2023-04-29T01:20:14;17.77;;;8.00;;
69854;SDS011;57146;48.140;16.304;2023-04-29T01:22:42;14.48;;;7.28;;
69854;SDS011;57146;48.140;16.304;2023-04-29T01:25:09;17.88;;;7.78;;
69854;SDS011;57146;48.140;16.304;2023-04-29T01:34:18;16.58;;;7.50;;
69854;SDS011;57146;48.140;16.304;2023-04-29T01:39:14;17.92;;;8.18;;
69854;SDS011;57146;48.140;16.304;2023-04-29T01:42:03;19.47;;;8.93;;
69854;SDS011;57146;48.140;16.304;2023-04-29T01:44:36;22.13;;;9.68;;
69854;SDS011;57146;48.140;16.304;2023-04-29T01:47:05;20.15;;;9.07;;
69854;SDS011;57146;48.140;16.304;2023-04-29T01:49:39;20.83;;;8.75;;
69854;SDS011;57146;48.140;16.304;2023-04-29T01:52:06;21.77;;;9.73;;
69854;SDS011;57146;48.140;16.304;2023-04-29T01:54:35;23.33;;;9.93;;
69854;SDS011;57146;48.140;16.304;2023-04-29T01:57:02;20.92;;;9.07;;
69854;SDS011;57146;48.140;16.304;2023-04-29T01:59:38;20.63;;;9.27;;
69854;SDS011;57146;48.140;16.304;2023-04-29T02:02:15;19.73;;;9.07;;
69854;SDS011;57146;48.140;16.304;2023-04-29T02:04:50;19.38;;;8.90;;
69854;SDS011;57146;48.140;16.304;2023-04-29T02:07:18;20.83;;;9.37;;
69854;SDS011;57146;48.140;16.304;2023-04-29T02:09:46;23.63;;;10.10;;
69854;SDS011;57146;48.140;16.304;2023-04-29T02:12:13;20.67;;;9.93;;
69854;SDS011;57146;48.140;16.304;2023-04-29T02:14:40;22.67;;;9.52;;
69854;SDS011;57146;48.140;16.304;2023-04-29T02:17:07;19.90;;;9.65;;
69854;SDS011;57146;48.140;16.304;2023-04-29T02:19:35;22.10;;;9.53;;
69854;SDS011;57146;48.140;16.304;2023-04-29T02:22:02;24.77;;;10.73;;
69854;SDS011;57146;48.140;16.304;2023-04-29T02:24:29;22.35;;;9.88;;
69854;SDS011;57146;48.140;16.304;2023-04-29T02:26:56;21.95;;;9.90;;
69854;SDS011;57146;48.140;16.304;2023-04-29T02:29:23;25.40;;;10.20;;
69854;SDS011;57146;48.140;16.304;2023-04-29T02:31:50;22.57;;;9.77;;
69854;SDS011;57146;48.140;16.304;2023-04-29T02:34:17;20.80;;;9.38;;
69854;SDS011;57146;48.140;16.304;2023-04-29T02:36:44;21.45;;;9.90;;
69854;SDS011;57146;48.140;16.304;2023-04-29T02:39:11;23.67;;;10.43;;
69854;SDS011;57146;48.140;16.304;2023-04-29T02:41:38;25.73;;;10.88;;
69854;SDS011;57146;48.140;16.304;2023-04-29T02:44:05;23.73;;;10.33;;
69854;SDS011;57146;48.140;16.304;2023-04-29T02:46:32;22.88;;;10.55;;
69854;SDS011;57146;48.140;16.304;2023-04-29T02:48:59;23.30;;;10.50;;
69854;SDS011;57146;48.140;16.304;2023-04-29T02:51:26;24.98;;;10.98;;
69854;SDS011;57146;48.140;16.304;2023-04-29T02:53:53;24.75;;;10.73;;
69854;SDS011;57146;48.140;16.304;2023-04-29T02:56:20;21.53;;;10.50;;
69854;SDS011;57146;48.140;16.304;2023-04-29T02:58:47;22.35;;;10.05;;
69854;SDS011;57146;48.140;16.304;2023-04-29T03:01:14;19.98;;;9.85;;
69854;SDS011;57146;48.140;16.304;2023-04-29T03:03:41;20.25;;;9.25;;
69854;SDS011;57146;48.140;16.304;2023-04-29T03:06:09;20.13;;;10.45;;
69854;SDS011;57146;48.140;16.304;2023-04-29T03:08:35;19.90;;;9.50;;
69854;SDS011;57146;48.140;16.304;2023-04-29T03:11:02;21.00;;;10.35;;
69854;SDS011;57146;48.140;16.304;2023-04-29T03:13:29;20.02;;;10.25;;
69854;SDS011;57146;48.140;16.304;2023-04-29T03:15:56;22.13;;;9.90;;
69854;SDS011;57146;48.140;16.304;2023-04-29T03:18:23;18.95;;;9.35;;
69854;SDS011;57146;48.140;16.304;2023-04-29T03:20:50;20.10;;;9.80;;
69854;SDS011;57146;48.140;16.304;2023-04-29T03:23:17;22.10;;;10.02;;
69854;SDS011;57146;48.140;16.304;2023-04-29T03:25:44;21.63;;;10.40;;
69854;SDS011;57146;48.140;16.304;2023-04-29T03:28:10;20.27;;;9.68;;
69854;SDS011;57146;48.140;16.304;2023-04-29T03:30:37;21.52;;;9.25;;
69854;SDS011;57146;48.140;16.304;2023-04-29T03:33:04;18.73;;;9.23;;
69854;SDS011;57146;48.140;16.304;2023-04-29T03:35:31;20.40;;;9.32;;
69854;SDS011;57146;48.140;16.304;2023-04-29T03:38:16;19.60;;;9.50;;
69854;SDS011;57146;48.140;16.304;2023-04-29T03:40:44;19.35;;;9.30;;
69854;SDS011;57146;48.140;16.304;2023-04-29T03:43:11;20.08;;;9.27;;
69854;SDS011;57146;48.140;16.304;2023-04-29T03:45:38;20.17;;;9.60;;
69854;SDS011;57146;48.140;16.304;2023-04-29T03:48:05;22.33;;;10.35;;
69854;SDS011;57146;48.140;16.304;2023-04-29T03:50:33;21.88;;;9.10;;
69854;SDS011;57146;48.140;16.304;2023-04-29T03:53:01;21.77;;;9.40;;
69854;SDS011;57146;48.140;16.304;2023-04-29T03:55:29;25.92;;;10.80;;
69854;SDS011;57146;48.140;16.304;2023-04-29T03:57:56;22.63;;;10.17;;
69854;SDS011;57146;48.140;16.304;2023-04-29T04:00:23;22.60;;;9.77;;
69854;SDS011;57146;48.140;16.304;2023-04-29T04:02:53;23.67;;;10.75;;
69854;SDS011;57146;48.140;16.304;2023-04-29T04:05:20;23.58;;;10.38;;
69854;SDS011;57146;48.140;16.304;2023-04-29T04:07:52;22.48;;;9.70;;
69854;SDS011;57146;48.140;16.304;2023-04-29T04:10:31;21.53;;;9.67;;
69854;SDS011;57146;48.140;16.304;2023-04-29T04:13:00;21.02;;;9.73;;
69854;SDS011;57146;48.140;16.304;2023-04-29T04:15:27;21.75;;;10.57;;
69854;SDS011;57146;48.140;16.304;2023-04-29T04:17:56;21.70;;;9.93;;
69854;SDS011;57146;48.140;16.304;2023-04-29T04:20:23;20.80;;;8.98;;
69854;SDS011;57146;48.140;16.304;2023-04-29T04:22:50;19.07;;;8.90;;
69854;SDS011;57146;48.140;16.304;2023-04-29T04:25:28;18.40;;;8.95;;
69854;SDS011;57146;48.140;16.304;2023-04-29T04:28:04;19.13;;;8.63;;
69854;SDS011;57146;48.140;16.304;2023-04-29T04:30:51;18.35;;;8.27;;
69854;SDS011;57146;48.140;16.304;2023-04-29T04:33:18;16.92;;;7.95;;
69854;SDS011;57146;48.140;16.304;2023-04-29T04:35:45;18.43;;;8.67;;
69854;SDS011;57146;48.140;16.304;2023-04-29T04:38:12;19.55;;;8.85;;
69854;SDS011;57146;48.140;16.304;2023-04-29T04:40:41;18.45;;;8.88;;
69854;SDS011;57146;48.140;16.304;2023-04-29T04:43:26;16.45;;;7.90;;
69854;SDS011;57146;48.140;16.304;2023-04-29T04:45:53;16.42;;;7.50;;
69854;SDS011;57146;48.140;16.304;2023-04-29T04:48:20;17.90;;;7.83;;
69854;SDS011;57146;48.140;16.304;2023-04-29T04:50:49;17.88;;;8.35;;
69854;SDS011;57146;48.140;16.304;2023-04-29T04:53:16;19.02;;;9.30;;
69854;SDS011;57146;48.140;16.304;2023-04-29T04:55:52;17.10;;;8.10;;
69854;SDS011;57146;48.140;16.304;2023-04-29T04:58:19;17.80;;;8.77;;
69854;SDS011;57146;48.140;16.304;2023-04-29T05:00:46;16.67;;;8.43;;
69854;SDS011;57146;48.140;16.304;2023-04-29T05:03:14;16.88;;;8.20;;
69854;SDS011;57146;48.140;16.304;2023-04-29T05:05:41;18.30;;;8.82;;
69854;SDS011;57146;48.140;16.304;2023-04-29T05:08:08;17.55;;;8.60;;
69854;SDS011;57146;48.140;16.304;2023-04-29T05:10:40;20.88;;;8.93;;
69854;SDS011;57146;48.140;16.304;2023-04-29T05:13:08;17.70;;;8.73;;
69854;SDS011;57146;48.140;16.304;2023-04-29T05:15:36;19.38;;;9.35;;
69854;SDS011;57146;48.140;16.304;2023-04-29T05:18:04;17.60;;;8.82;;
69854;SDS011;57146;48.140;16.304;2023-04-29T05:20:31;18.50;;;8.55;;
69854;SDS011;57146;48.140;16.304;2023-04-29T05:23:00;16.85;;;8.10;;
69854;SDS011;57146;48.140;16.304;2023-04-29T05:25:30;15.77;;;7.50;;
69854;SDS011;57146;48.140;16.304;2023-04-29T05:27:59;16.15;;;7.50;;
69854;SDS011;57146;48.140;16.304;2023-04-29T05:30:29;15.15;;;7.22;;
69854;SDS011;57146;48.140;16.304;2023-04-29T05:32:56;15.45;;;6.53;;
69854;SDS011;57146;48.140;16.304;2023-04-29T05:35:23;13.77;;;6.35;;
69854;SDS011;57146;48.140;16.304;2023-04-29T05:37:51;12.70;;;5.67;;
69854;SDS011;57146;48.140;16.304;2023-04-29T05:40:25;14.60;;;6.57;;
69854;SDS011;57146;48.140;16.304;2023-04-29T05:43:06;14.75;;;6.38;;
69854;SDS011;57146;48.140;16.304;2023-04-29T05:45:33;15.30;;;7.10;;
69854;SDS011;57146;48.140;16.304;2023-04-29T05:48:00;15.45;;;6.65;;
69854;SDS011;57146;48.140;16.304;2023-04-29T05:50:27;15.60;;;7.17;;
69854;SDS011;57146;48.140;16.304;2023-04-29T05:52:54;14.82;;;7.10;;
69854;SDS011;57146;48.140;16.304;2023-04-29T05:55:23;14.27;;;7.22;;
69854;SDS011;57146;48.140;16.304;2023-04-29T05:57:49;16.40;;;7.55;;
69854;SDS011;57146;48.140;16.304;2023-04-29T06:00:16;15.52;;;7.45;;
69854;SDS011;57146;48.140;16.304;2023-04-29T06:02:43;13.90;;;7.27;;
69854;SDS011;57146;48.140;16.304;2023-04-29T06:05:25;15.25;;;6.55;;
69854;SDS011;57146;48.140;16.304;2023-04-29T06:08:16;15.82;;;7.45;;
69854;SDS011;57146;48.140;16.304;2023-04-29T06:10:48;14.80;;;7.05;;
69854;SDS011;57146;48.140;16.304;2023-04-29T06:13:15;15.80;;;7.07;;
69854;SDS011;57146;48.140;16.304;2023-04-29T06:15:43;13.50;;;6.73;;
69854;SDS011;57146;48.140;16.304;2023-04-29T06:18:12;15.43;;;6.80;;
69854;SDS011;57146;48.140;16.304;2023-04-29T06:20:39;16.00;;;7.55;;
69854;SDS011;57146;48.140;16.304;2023-04-29T06:23:06;13.82;;;6.78;;
69854;SDS011;57146;48.140;16.304;2023-04-29T06:25:33;14.27;;;6.85;;
69854;SDS011;57146;48.140;16.304;2023-04-29T06:28:03;15.27;;;6.73;;
69854;SDS011;57146;48.140;16.304;2023-04-29T06:30:30;14.70;;;7.05;;
69854;SDS011;57146;48.140;16.304;2023-04-29T06:32:57;13.15;;;6.55;;
69854;SDS011;57146;48.140;16.304;2023-04-29T06:35:24;13.00;;;6.50;;
69854;SDS011;57146;48.140;16.304;2023-04-29T06:38:23;16.17;;;6.82;;
69854;SDS011;57146;48.140;16.304;2023-04-29T06:41:13;13.30;;;6.20;;
69854;SDS011;57146;48.140;16.304;2023-04-29T06:43:57;13.80;;;6.50;;
69854;SDS011;57146;48.140;16.304;2023-04-29T06:46:45;13.65;;;6.90;;
69854;SDS011;57146;48.140;16.304;2023-04-29T06:49:30;12.77;;;6.40;;
69854;SDS011;57146;48.140;16.304;2023-04-29T06:51:58;12.68;;;6.10;;
69854;SDS011;57146;48.140;16.304;2023-04-29T06:54:25;14.57;;;6.47;;
69854;SDS011;57146;48.140;16.304;2023-04-29T06:56:52;12.88;;;6.22;;
69854;SDS011;57146;48.140;16.304;2023-04-29T06:59:22;12.63;;;6.10;;
69854;SDS011;57146;48.140;16.304;2023-04-29T07:01:50;12.77;;;6.10;;
69854;SDS011;57146;48.140;16.304;2023-04-29T07:04:18;12.77;;;5.93;;
69854;SDS011;57146;48.140;16.304;2023-04-29T07:06:46;12.27;;;5.27;;
69854;SDS011;57146;48.140;16.304;2023-04-29T07:09:13;9.52;;;5.03;;
69854;SDS011;57146;48.140;16.304;2023-04-29T07:11:40;13.27;;;6.07;;
69854;SDS011;57146;48.140;16.304;2023-04-29T07:14:07;14.82;;;6.45;;
69854;SDS011;57146;48.140;16.304;2023-04-29T07:16:34;14.15;;;6.22;;
69854;SDS011;57146;48.140;16.304;2023-04-29T07:19:01;13.37;;;6.40;;
69854;SDS011;57146;48.140;16.304;2023-04-29T07:21:28;12.80;;;5.82;;
69854;SDS011;57146;48.140;16.304;2023-04-29T07:23:55;13.40;;;6.32;;
69854;SDS011;57146;48.140;16.304;2023-04-29T07:26:22;11.05;;;5.35;;
69854;SDS011;57146;48.140;16.304;2023-04-29T07:28:49;12.70;;;5.75;;
69854;SDS011;57146;48.140;16.304;2023-04-29T07:31:15;10.13;;;4.90;;
69854;SDS011;57146;48.140;16.304;2023-04-29T07:33:43;10.80;;;4.90;;
69854;SDS011;57146;48.140;16.304;2023-04-29T07:36:10;11.68;;;4.95;;
69854;SDS011;57146;48.140;16.304;2023-04-29T07:38:37;9.65;;;4.43;;
69854;SDS011;57146;48.140;16.304;2023-04-29T07:41:04;12.02;;;4.40;;
69854;SDS011;57146;48.140;16.304;2023-04-29T07:43:31;10.83;;;4.27;;
69854;SDS011;57146;48.140;16.304;2023-04-29T07:45:58;8.75;;;4.05;;
69854;SDS011;57146;48.140;16.304;2023-04-29T07:48:25;9.73;;;4.40;;
69854;SDS011;57146;48.140;16.304;2023-04-29T07:50:52;10.65;;;4.47;;
69854;SDS011;57146;48.140;16.304;2023-04-29T07:53:19;11.18;;;4.70;;
69854;SDS011;57146;48.140;16.304;2023-04-29T07:55:46;10.90;;;4.00;;
69854;SDS011;57146;48.140;16.304;2023-04-29T07:58:13;9.60;;;4.40;;
69854;SDS011;57146;48.140;16.304;2023-04-29T08:00:40;9.38;;;3.83;;
69854;SDS011;57146;48.140;16.304;2023-04-29T08:03:06;8.55;;;3.70;;
69854;SDS011;57146;48.140;16.304;2023-04-29T08:05:34;8.02;;;3.67;;
69854;SDS011;57146;48.140;16.304;2023-04-29T08:08:02;6.63;;;3.00;;
69854;SDS011;57146;48.140;16.304;2023-04-29T08:10:29;7.05;;;3.25;;
69854;SDS011;57146;48.140;16.304;2023-04-29T08:12:56;7.25;;;3.00;;
69854;SDS011;57146;48.140;16.304;2023-04-29T08:15:23;9.20;;;3.67;;
69854;SDS011;57146;48.140;16.304;2023-04-29T08:17:51;8.68;;;3.80;;
69854;SDS011;57146;48.140;16.304;2023-04-29T08:20:18;7.13;;;3.03;;
69854;SDS011;57146;48.140;16.304;2023-04-29T08:22:44;8.27;;;3.30;;
69854;SDS011;57146;48.140;16.304;2023-04-29T08:25:11;7.22;;;3.03;;
69854;SDS011;57146;48.140;16.304;2023-04-29T08:27:38;7.70;;;2.53;;
69854;SDS011;57146;48.140;16.304;2023-04-29T08:30:05;6.95;;;2.83;;
69854;SDS011;57146;48.140;16.304;2023-04-29T08:32:33;7.63;;;2.73;;
69854;SDS011;57146;48.140;16.304;2023-04-29T08:35:00;6.22;;;2.55;;
69854;SDS011;57146;48.140;16.304;2023-04-29T08:37:26;7.22;;;2.97;;
69854;SDS011;57146;48.140;16.304;2023-04-29T08:39:53;6.47;;;2.72;;
69854;SDS011;57146;48.140;16.304;2023-04-29T08:42:27;6.30;;;2.40;;
69854;SDS011;57146;48.140;16.304;2023-04-29T08:44:59;6.97;;;2.93;;
69854;SDS011;57146;48.140;16.304;2023-04-29T08:47:31;7.63;;;2.92;;
69854;SDS011;57146;48.140;16.304;2023-04-29T08:50:02;7.25;;;3.15;;
69854;SDS011;57146;48.140;16.304;2023-04-29T08:52:31;7.32;;;2.90;;
69854;SDS011;57146;48.140;16.304;2023-04-29T08:54:59;7.43;;;3.10;;
69854;SDS011;57146;48.140;16.304;2023-04-29T08:57:26;6.53;;;2.63;;
69854;SDS011;57146;48.140;16.304;2023-04-29T08:59:55;6.65;;;2.80;;
69854;SDS011;57146;48.140;16.304;2023-04-29T09:02:24;6.10;;;2.83;;
69854;SDS011;57146;48.140;16.304;2023-04-29T09:04:54;7.93;;;2.90;;
69854;SDS011;57146;48.140;16.304;2023-04-29T09:07:34;6.05;;;2.53;;
69854;SDS011;57146;48.140;16.304;2023-04-29T09:10:03;6.57;;;2.57;;
69854;SDS011;57146;48.140;16.304;2023-04-29T09:12:30;6.07;;;2.50;;
69854;SDS011;57146;48.140;16.304;2023-04-29T09:14:57;6.70;;;2.72;;
69854;SDS011;57146;48.140;16.304;2023-04-29T09:17:43;6.75;;;2.88;;
69854;SDS011;57146;48.140;16.304;2023-04-29T09:22:51;7.07;;;3.37;;
69854;SDS011;57146;48.140;16.304;2023-04-29T09:25:19;7.43;;;3.17;;
69854;SDS011;57146;48.140;16.304;2023-04-29T09:27:46;5.97;;;2.53;;
69854;SDS011;57146;48.140;16.304;2023-04-29T09:30:13;6.18;;;2.30;;
69854;SDS011;57146;48.140;16.304;2023-04-29T09:32:44;2.42;;;0.10;;
69854;SDS011;57146;48.140;16.304;2023-04-29T09:35:30;1.47;;;0.00;;
69854;SDS011;57146;48.140;16.304;2023-04-29T09:38:08;1.42;;;0.10;;
69854;SDS011;57146;48.140;16.304;2023-04-29T09:40:36;1.48;;;0.00;;
69854;SDS011;57146;48.140;16.304;2023-04-29T09:43:22;1.20;;;0.00;;
69854;SDS011;57146;48.140;16.304;2023-04-29T09:45:49;0.80;;;0.00;;
69854;SDS011;57146;48.140;16.304;2023-04-29T09:48:16;0.60;;;0.00;;
69854;SDS011;57146;48.140;16.304;2023-04-29T09:50:43;1.35;;;0.00;;
69854;SDS011;57146;48.140;16.304;2023-04-29T09:53:28;0.50;;;0.00;;
69854;SDS011;57146;48.140;16.304;2023-04-29T09:55:57;0.73;;;0.00;;
69854;SDS011;57146;48.140;16.304;2023-04-29T09:58:28;1.30;;;0.00;;
69854;SDS011;57146;48.140;16.304;2023-04-29T10:01:00;0.77;;;0.00;;
69854;SDS011;57146;48.140;16.304;2023-04-29T10:03:33;1.27;;;0.03;;
69854;SDS011;57146;48.140;16.304;2023-04-29T10:06:03;0.70;;;0.00;;
69854;SDS011;57146;48.140;16.304;2023-04-29T10:08:32;0.80;;;0.00;;
69854;SDS011;57146;48.140;16.304;2023-04-29T10:11:01;0.82;;;0.00;;
69854;SDS011;57146;48.140;16.304;2023-04-29T10:13:29;0.70;;;0.00;;
69854;SDS011;57146;48.140;16.304;2023-04-29T10:18:35;1.35;;;0.00;;
69854;SDS011;57146;48.140;16.304;2023-04-29T10:21:05;1.33;;;0.00;;
69854;SDS011;57146;48.140;16.304;2023-04-29T10:23:34;1.13;;;0.00;;
69854;SDS011;57146;48.140;16.304;2023-04-29T10:26:02;0.70;;;0.00;;
69854;SDS011;57146;48.140;16.304;2023-04-29T10:28:30;1.13;;;0.00;;
69854;SDS011;57146;48.140;16.304;2023-04-29T10:31:00;0.70;;;0.00;;
69854;SDS011;57146;48.140;16.304;2023-04-29T10:33:31;1.95;;;0.00;;
69854;SDS011;57146;48.140;16.304;2023-04-29T10:35:58;0.90;;;0.00;;
69854;SDS011;57146;48.140;16.304;2023-04-29T10:38:35;1.00;;;0.00;;
69854;SDS011;57146;48.140;16.304;2023-04-29T10:41:09;1.27;;;0.00;;
69854;SDS011;57146;48.140;16.304;2023-04-29T10:43:48;0.90;;;0.00;;
69854;SDS011;57146;48.140;16.304;2023-04-29T10:48:42;1.10;;;0.00;;
69854;SDS011;57146;48.140;16.304;2023-04-29T10:51:10;0.90;;;0.00;;
69854;SDS011;57146;48.140;16.304;2023-04-29T10:56:46;1.05;;;0.00;;
69854;SDS011;57146;48.140;16.304;2023-04-29T11:01:54;1.20;;;0.00;;
69854;SDS011;57146;48.140;16.304;2023-04-29T11:04:21;0.87;;;0.00;;
69854;SDS011;57146;48.140;16.304;2023-04-29T11:06:52;1.38;;;0.10;;
69854;SDS011;57146;48.140;16.304;2023-04-29T11:09:23;1.25;;;0.03;;
69854;SDS011;57146;48.140;16.304;2023-04-29T11:16:58;6.57;;;0.10;;
69854;SDS011;57146;48.140;16.304;2023-04-29T11:19:33;1.77;;;0.00;;
69854;SDS011;57146;48.140;16.304;2023-04-29T11:22:23;1.85;;;0.00;;
69854;SDS011;57146;48.140;16.304;2023-04-29T11:24:53;1.90;;;0.00;;
69854;SDS011;57146;48.140;16.304;2023-04-29T11:27:24;1.30;;;0.00;;
69854;SDS011;57146;48.140;16.304;2023-04-29T11:29:53;1.47;;;0.00;;
69854;SDS011;57146;48.140;16.304;2023-04-29T11:32:21;2.13;;;0.00;;
69854;SDS011;57146;48.140;16.304;2023-04-29T11:34:48;1.88;;;0.08;;
69854;SDS011;57146;48.140;16.304;2023-04-29T11:37:22;1.20;;;0.00;;
69854;SDS011;57146;48.140;16.304;2023-04-29T11:39:56;1.90;;;0.00;;
69854;SDS011;57146;48.140;16.304;2023-04-29T11:42:26;1.17;;;0.00;;
69854;SDS011;57146;48.140;16.304;2023-04-29T11:44:53;2.58;;;0.30;;
69854;SDS011;57146;48.140;16.304;2023-04-29T11:47:24;3.50;;;1.13;;
69854;SDS011;57146;48.140;16.304;2023-04-29T11:50:02;4.32;;;1.10;;
69854;SDS011;57146;48.140;16.304;2023-04-29T11:52:39;5.60;;;1.13;;
69854;SDS011;57146;48.140;16.304;2023-04-29T11:55:09;4.33;;;1.20;;
69854;SDS011;57146;48.140;16.304;2023-04-29T11:57:37;3.40;;;0.60;;
69854;SDS011;57146;48.140;16.304;2023-04-29T12:00:07;3.30;;;0.50;;
69854;SDS011;57146;48.140;16.304;2023-04-29T12:02:36;2.65;;;0.55;;
69854;SDS011;57146;48.140;16.304;2023-04-29T12:05:06;3.35;;;0.50;;
69854;SDS011;57146;48.140;16.304;2023-04-29T12:07:34;2.30;;;0.40;;
69854;SDS011;57146;48.140;16.304;2023-04-29T12:10:01;2.53;;;0.43;;
69854;SDS011;57146;48.140;16.304;2023-04-29T12:12:29;2.30;;;0.40;;
69854;SDS011;57146;48.140;16.304;2023-04-29T12:14:56;2.55;;;0.32;;
69854;SDS011;57146;48.140;16.304;2023-04-29T12:17:23;3.08;;;0.77;;
69854;SDS011;57146;48.140;16.304;2023-04-29T12:19:50;4.30;;;1.07;;
69854;SDS011;57146;48.140;16.304;2023-04-29T12:22:18;4.38;;;1.17;;
69854;SDS011;57146;48.140;16.304;2023-04-29T12:24:45;4.78;;;0.82;;
69854;SDS011;57146;48.140;16.304;2023-04-29T12:27:14;2.95;;;0.80;;
69854;SDS011;57146;48.140;16.304;2023-04-29T12:29:45;3.33;;;0.82;;
69854;SDS011;57146;48.140;16.304;2023-04-29T12:32:16;3.00;;;0.70;;
69854;SDS011;57146;48.140;16.304;2023-04-29T12:34:44;2.72;;;0.60;;
69854;SDS011;57146;48.140;16.304;2023-04-29T12:37:12;4.05;;;1.10;;
69854;SDS011;57146;48.140;16.304;2023-04-29T12:39:40;3.40;;;0.63;;
69854;SDS011;57146;48.140;16.304;2023-04-29T12:42:10;2.85;;;0.50;;
69854;SDS011;57146;48.140;16.304;2023-04-29T12:44:45;2.70;;;0.50;;
69854;SDS011;57146;48.140;16.304;2023-04-29T12:47:13;3.60;;;0.80;;
69854;SDS011;57146;48.140;16.304;2023-04-29T12:49:43;3.17;;;0.80;;
69854;SDS011;57146;48.140;16.304;2023-04-29T12:52:11;3.90;;;0.68;;
69854;SDS011;57146;48.140;16.304;2023-04-29T12:54:38;3.30;;;0.90;;
69854;SDS011;57146;48.140;16.304;2023-04-29T12:57:06;3.83;;;1.13;;
69854;SDS011;57146;48.140;16.304;2023-04-29T12:59:33;4.85;;;1.30;;
69854;SDS011;57146;48.140;16.304;2023-04-29T13:02:00;10.35;;;2.88;;
69854;SDS011;57146;48.140;16.304;2023-04-29T13:04:27;8.13;;;3.42;;
69854;SDS011;57146;48.140;16.304;2023-04-29T13:06:54;7.60;;;3.30;;
69854;SDS011;57146;48.140;16.304;2023-04-29T13:09:21;6.70;;;2.73;;
69854;SDS011;57146;48.140;16.304;2023-04-29T13:11:47;6.60;;;3.10;;
69854;SDS011;57146;48.140;16.304;2023-04-29T13:14:14;5.95;;;2.13;;
69854;SDS011;57146;48.140;16.304;2023-04-29T13:16:41;6.70;;;2.22;;
69854;SDS011;57146;48.140;16.304;2023-04-29T13:19:08;8.27;;;3.78;;
69854;SDS011;57146;48.140;16.304;2023-04-29T13:21:55;13.27;;;6.77;;
69854;SDS011;57146;48.140;16.304;2023-04-29T13:24:22;7.70;;;3.25;;
69854;SDS011;57146;48.140;16.304;2023-04-29T13:26:49;9.85;;;5.07;;
69854;SDS011;57146;48.140;16.304;2023-04-29T13:29:18;6.53;;;3.33;;
69854;SDS011;57146;48.140;16.304;2023-04-29T13:31:45;6.82;;;3.50;;
69854;SDS011;57146;48.140;16.304;2023-04-29T13:34:12;5.93;;;2.20;;
69854;SDS011;57146;48.140;16.304;2023-04-29T13:36:39;5.68;;;2.50;;
69854;SDS011;57146;48.140;16.304;2023-04-29T13:39:06;7.05;;;2.42;;
69854;SDS011;57146;48.140;16.304;2023-04-29T13:41:34;4.95;;;1.80;;
69854;SDS011;57146;48.140;16.304;2023-04-29T13:44:01;4.97;;;1.77;;
69854;SDS011;57146;48.140;16.304;2023-04-29T13:46:30;3.80;;;1.10;;
69854;SDS011;57146;48.140;16.304;2023-04-29T13:48:57;3.80;;;1.27;;
69854;SDS011;57146;48.140;16.304;2023-04-29T13:51:27;4.57;;;1.30;;
69854;SDS011;57146;48.140;16.304;2023-04-29T13:53:57;4.00;;;1.50;;
69854;SDS011;57146;48.140;16.304;2023-04-29T13:56:44;6.68;;;0.70;;
69854;SDS011;57146;48.140;16.304;2023-04-29T13:59:13;6.93;;;0.60;;
69854;SDS011;57146;48.140;16.304;2023-04-29T14:02:00;11.70;;;1.30;;
69854;SDS011;57146;48.140;16.304;2023-04-29T14:04:31;5.30;;;1.13;;
69854;SDS011;57146;48.140;16.304;2023-04-29T14:06:58;2.92;;;0.60;;
69854;SDS011;57146;48.140;16.304;2023-04-29T14:09:25;3.78;;;0.73;;
69854;SDS011;57146;48.140;16.304;2023-04-29T14:11:52;2.97;;;0.57;;
69854;SDS011;57146;48.140;16.304;2023-04-29T14:14:18;2.92;;;0.65;;
69854;SDS011;57146;48.140;16.304;2023-04-29T14:16:45;3.72;;;0.50;;
69854;SDS011;57146;48.140;16.304;2023-04-29T14:19:12;4.45;;;0.50;;
69854;SDS011;57146;48.140;16.304;2023-04-29T14:21:40;2.20;;;0.43;;
69854;SDS011;57146;48.140;16.304;2023-04-29T14:24:07;3.47;;;0.60;;
69854;SDS011;57146;48.140;16.304;2023-04-29T14:26:34;2.92;;;0.50;;
69854;SDS011;57146;48.140;16.304;2023-04-29T14:29:00;3.35;;;1.08;;
69854;SDS011;57146;48.140;16.304;2023-04-29T14:31:30;2.90;;;0.60;;
69854;SDS011;57146;48.140;16.304;2023-04-29T14:34:00;2.88;;;0.30;;
69854;SDS011;57146;48.140;16.304;2023-04-29T14:36:27;3.33;;;0.30;;
69854;SDS011;57146;48.140;16.304;2023-04-29T14:38:54;3.03;;;0.20;;
69854;SDS011;57146;48.140;16.304;2023-04-29T14:41:21;2.00;;;0.20;;
69854;SDS011;57146;48.140;16.304;2023-04-29T14:43:48;3.42;;;0.35;;
69854;SDS011;57146;48.140;16.304;2023-04-29T14:46:15;2.47;;;0.25;;
69854;SDS011;57146;48.140;16.304;2023-04-29T14:48:42;2.37;;;0.20;;
69854;SDS011;57146;48.140;16.304;2023-04-29T14:51:09;2.72;;;0.32;;
69854;SDS011;57146;48.140;16.304;2023-04-29T14:53:36;2.95;;;0.28;;
69854;SDS011;57146;48.140;16.304;2023-04-29T14:56:03;2.20;;;0.20;;
69854;SDS011;57146;48.140;16.304;2023-04-29T14:58:30;4.60;;;0.32;;
69854;SDS011;57146;48.140;16.304;2023-04-29T15:00:56;4.07;;;1.80;;
69854;SDS011;57146;48.140;16.304;2023-04-29T15:03:23;2.53;;;0.32;;
69854;SDS011;57146;48.140;16.304;2023-04-29T15:05:52;2.30;;;0.50;;
69854;SDS011;57146;48.140;16.304;2023-04-29T15:08:19;2.17;;;0.40;;
69854;SDS011;57146;48.140;16.304;2023-04-29T15:10:46;3.33;;;0.68;;
69854;SDS011;57146;48.140;16.304;2023-04-29T15:13:13;2.33;;;0.40;;
69854;SDS011;57146;48.140;16.304;2023-04-29T15:15:40;3.72;;;0.90;;